sensor_id;sensor_type;location;lat;lon;timestamp;temperature;humidity
21493;DHT22;10908;50.690;4.400;2023-06-22T00:00:50;21.30;67.80
21493;DHT22;10908;50.690;4.400;2023-06-22T00:03:18;21.40;67.80
21493;DHT22;10908;50.690;4.400;2023-06-22T00:05:45;21.30;67.60
21493;DHT22;10908;50.690;4.400;2023-06-22T00:08:11;21.30;67.60
21493;DHT22;10908;50.690;4.400;2023-06-22T00:10:37;21.30;67.50
21493;DHT22;10908;50.690;4.400;2023-06-22T00:13:03;21.10;68.00
21493;DHT22;10908;50.690;4.400;2023-06-22T00:15:28;21.20;68.10
21493;DHT22;10908;50.690;4.400;2023-06-22T00:17:54;21.20;67.90
21493;DHT22;10908;50.690;4.400;2023-06-22T00:20:20;21.00;68.70
21493;DHT22;10908;50.690;4.400;2023-06-22T00:22:45;21.00;68.70
21493;DHT22;10908;50.690;4.400;2023-06-22T00:25:13;21.10;69.20
21493;DHT22;10908;50.690;4.400;2023-06-22T00:27:39;20.90;68.90
21493;DHT22;10908;50.690;4.400;2023-06-22T00:30:05;21.00;69.50
21493;DHT22;10908;50.690;4.400;2023-06-22T00:32:30;21.00;69.10
21493;DHT22;10908;50.690;4.400;2023-06-22T00:34:56;20.90;69.60
21493;DHT22;10908;50.690;4.400;2023-06-22T00:37:22;21.00;69.60
21493;DHT22;10908;50.690;4.400;2023-06-22T00:39:51;20.90;69.70
21493;DHT22;10908;50.690;4.400;2023-06-22T00:42:17;20.90;69.50
21493;DHT22;10908;50.690;4.400;2023-06-22T00:44:42;20.90;69.60
21493;DHT22;10908;50.690;4.400;2023-06-22T00:47:09;20.90;69.90
21493;DHT22;10908;50.690;4.400;2023-06-22T00:49:34;21.10;69.30
21493;DHT22;10908;50.690;4.400;2023-06-22T00:52:00;21.10;69.30
21493;DHT22;10908;50.690;4.400;2023-06-22T00:54:26;21.00;69.40
21493;DHT22;10908;50.690;4.400;2023-06-22T00:56:54;21.00;69.30
21493;DHT22;10908;50.690;4.400;2023-06-22T00:59:22;21.10;68.80
21493;DHT22;10908;50.690;4.400;2023-06-22T01:01:48;21.20;68.70
21493;DHT22;10908;50.690;4.400;2023-06-22T01:04:14;21.20;68.50
21493;DHT22;10908;50.690;4.400;2023-06-22T01:06:45;21.00;69.00
21493;DHT22;10908;50.690;4.400;2023-06-22T01:09:22;20.90;69.00
21493;DHT22;10908;50.690;4.400;2023-06-22T01:11:58;20.90;68.80
21493;DHT22;10908;50.690;4.400;2023-06-22T01:14:54;20.90;68.90
21493;DHT22;10908;50.690;4.400;2023-06-22T01:17:21;21.00;67.90
21493;DHT22;10908;50.690;4.400;2023-06-22T01:19:50;21.00;67.70
21493;DHT22;10908;50.690;4.400;2023-06-22T01:22:23;20.90;68.10
21493;DHT22;10908;50.690;4.400;2023-06-22T01:29:51;20.60;68.70
21493;DHT22;10908;50.690;4.400;2023-06-22T01:32:18;20.60;68.80
21493;DHT22;10908;50.690;4.400;2023-06-22T01:34:45;20.60;68.70
21493;DHT22;10908;50.690;4.400;2023-06-22T01:37:12;20.60;69.10
21493;DHT22;10908;50.690;4.400;2023-06-22T01:39:38;20.40;69.50
21493;DHT22;10908;50.690;4.400;2023-06-22T01:42:04;20.40;70.00
21493;DHT22;10908;50.690;4.400;2023-06-22T01:44:30;20.30;70.50
21493;DHT22;10908;50.690;4.400;2023-06-22T01:46:56;20.10;70.70
21493;DHT22;10908;50.690;4.400;2023-06-22T01:49:22;20.20;70.80
21493;DHT22;10908;50.690;4.400;2023-06-22T01:51:48;20.30;70.50
21493;DHT22;10908;50.690;4.400;2023-06-22T01:54:14;20.40;70.00
21493;DHT22;10908;50.690;4.400;2023-06-22T01:56:39;20.30;70.30
21493;DHT22;10908;50.690;4.400;2023-06-22T01:59:29;20.40;70.50
21493;DHT22;10908;50.690;4.400;2023-06-22T02:02:11;20.50;70.50
21493;DHT22;10908;50.690;4.400;2023-06-22T02:04:48;20.50;70.10
21493;DHT22;10908;50.690;4.400;2023-06-22T02:07:15;20.40;70.20
21493;DHT22;10908;50.690;4.400;2023-06-22T02:09:44;20.30;70.60
21493;DHT22;10908;50.690;4.400;2023-06-22T02:12:12;20.30;70.70
21493;DHT22;10908;50.690;4.400;2023-06-22T02:14:39;20.30;70.30
21493;DHT22;10908;50.690;4.400;2023-06-22T02:17:07;20.30;70.70
21493;DHT22;10908;50.690;4.400;2023-06-22T02:19:37;20.40;70.70
21493;DHT22;10908;50.690;4.400;2023-06-22T02:22:03;20.40;69.90
21493;DHT22;10908;50.690;4.400;2023-06-22T02:24:29;20.30;70.00
21493;DHT22;10908;50.690;4.400;2023-06-22T02:26:58;20.30;70.40
21493;DHT22;10908;50.690;4.400;2023-06-22T02:29:24;20.30;70.40
21493;DHT22;10908;50.690;4.400;2023-06-22T02:31:49;20.30;70.50
21493;DHT22;10908;50.690;4.400;2023-06-22T02:34:15;20.30;69.80
21493;DHT22;10908;50.690;4.400;2023-06-22T02:36:48;20.40;69.80
21493;DHT22;10908;50.690;4.400;2023-06-22T02:39:21;20.40;69.30
21493;DHT22;10908;50.690;4.400;2023-06-22T02:41:51;20.40;68.80
21493;DHT22;10908;50.690;4.400;2023-06-22T02:44:18;20.30;68.90
21493;DHT22;10908;50.690;4.400;2023-06-22T02:46:44;20.10;69.60
21493;DHT22;10908;50.690;4.400;2023-06-22T02:49:10;20.20;68.90
21493;DHT22;10908;50.690;4.400;2023-06-22T02:51:39;20.10;68.60
21493;DHT22;10908;50.690;4.400;2023-06-22T02:54:05;20.10;69.50
21493;DHT22;10908;50.690;4.400;2023-06-22T02:56:31;20.10;68.70
21493;DHT22;10908;50.690;4.400;2023-06-22T02:58:57;20.20;68.90
21493;DHT22;10908;50.690;4.400;2023-06-22T03:01:28;20.10;68.30
21493;DHT22;10908;50.690;4.400;2023-06-22T03:03:56;20.30;67.70
21493;DHT22;10908;50.690;4.400;2023-06-22T03:06:22;20.20;67.60
21493;DHT22;10908;50.690;4.400;2023-06-22T03:08:50;20.10;68.00
21493;DHT22;10908;50.690;4.400;2023-06-22T03:11:16;20.20;67.90
21493;DHT22;10908;50.690;4.400;2023-06-22T03:13:42;20.30;67.70
21493;DHT22;10908;50.690;4.400;2023-06-22T03:16:08;20.30;67.90
21493;DHT22;10908;50.690;4.400;2023-06-22T03:18:33;20.50;67.50
21493;DHT22;10908;50.690;4.400;2023-06-22T03:20:59;20.50;66.50
21493;DHT22;10908;50.690;4.400;2023-06-22T03:23:25;20.70;65.90
21493;DHT22;10908;50.690;4.400;2023-06-22T03:25:51;20.80;65.80
21493;DHT22;10908;50.690;4.400;2023-06-22T03:28:16;20.80;66.20
21493;DHT22;10908;50.690;4.400;2023-06-22T03:30:43;20.80;65.80
21493;DHT22;10908;50.690;4.400;2023-06-22T03:33:08;20.80;66.00
21493;DHT22;10908;50.690;4.400;2023-06-22T03:35:34;20.90;65.80
21493;DHT22;10908;50.690;4.400;2023-06-22T03:37:59;20.90;65.80
21493;DHT22;10908;50.690;4.400;2023-06-22T03:40:25;20.90;67.20
21493;DHT22;10908;50.690;4.400;2023-06-22T03:42:51;20.90;68.00
21493;DHT22;10908;50.690;4.400;2023-06-22T03:45:16;20.90;67.30
21493;DHT22;10908;50.690;4.400;2023-06-22T03:47:42;20.90;68.10
21493;DHT22;10908;50.690;4.400;2023-06-22T03:50:08;20.80;68.50
21493;DHT22;10908;50.690;4.400;2023-06-22T03:52:33;20.80;69.20
21493;DHT22;10908;50.690;4.400;2023-06-22T03:54:59;20.80;69.20
21493;DHT22;10908;50.690;4.400;2023-06-22T03:57:24;20.80;69.20
21493;DHT22;10908;50.690;4.400;2023-06-22T03:59:50;20.70;69.30
21493;DHT22;10908;50.690;4.400;2023-06-22T04:02:16;20.80;69.70
21493;DHT22;10908;50.690;4.400;2023-06-22T04:04:41;20.80;70.00
21493;DHT22;10908;50.690;4.400;2023-06-22T04:07:07;20.50;70.10
21493;DHT22;10908;50.690;4.400;2023-06-22T04:09:33;20.30;71.30
21493;DHT22;10908;50.690;4.400;2023-06-22T04:12:01;20.20;73.10
21493;DHT22;10908;50.690;4.400;2023-06-22T04:14:27;20.10;74.60
21493;DHT22;10908;50.690;4.400;2023-06-22T04:16:52;19.90;74.40
21493;DHT22;10908;50.690;4.400;2023-06-22T04:19:18;19.90;74.50
21493;DHT22;10908;50.690;4.400;2023-06-22T04:21:44;19.80;74.40
21493;DHT22;10908;50.690;4.400;2023-06-22T04:24:10;19.80;75.60
21493;DHT22;10908;50.690;4.400;2023-06-22T04:26:36;19.70;75.30
21493;DHT22;10908;50.690;4.400;2023-06-22T04:29:05;19.60;75.60
21493;DHT22;10908;50.690;4.400;2023-06-22T04:31:32;19.60;76.20
21493;DHT22;10908;50.690;4.400;2023-06-22T04:34:03;19.60;75.70
21493;DHT22;10908;50.690;4.400;2023-06-22T04:36:41;19.60;77.00
21493;DHT22;10908;50.690;4.400;2023-06-22T04:39:08;19.80;77.50
21493;DHT22;10908;50.690;4.400;2023-06-22T04:41:38;19.70;77.60
21493;DHT22;10908;50.690;4.400;2023-06-22T04:44:17;19.90;76.20
21493;DHT22;10908;50.690;4.400;2023-06-22T04:46:50;20.10;74.80
21493;DHT22;10908;50.690;4.400;2023-06-22T04:49:20;20.10;75.30
21493;DHT22;10908;50.690;4.400;2023-06-22T04:51:46;19.90;75.10
21493;DHT22;10908;50.690;4.400;2023-06-22T04:54:11;19.90;75.40
21493;DHT22;10908;50.690;4.400;2023-06-22T04:56:37;19.90;76.40
21493;DHT22;10908;50.690;4.400;2023-06-22T04:59:03;19.80;76.20
21493;DHT22;10908;50.690;4.400;2023-06-22T05:01:29;19.90;76.70
21493;DHT22;10908;50.690;4.400;2023-06-22T05:03:56;19.80;76.70
21493;DHT22;10908;50.690;4.400;2023-06-22T05:06:23;19.70;77.10
21493;DHT22;10908;50.690;4.400;2023-06-22T05:08:56;19.60;77.60
21493;DHT22;10908;50.690;4.400;2023-06-22T05:11:26;19.40;78.40
21493;DHT22;10908;50.690;4.400;2023-06-22T05:13:52;19.50;78.40
21493;DHT22;10908;50.690;4.400;2023-06-22T05:16:17;19.60;79.00
21493;DHT22;10908;50.690;4.400;2023-06-22T05:18:48;19.50;78.10
21493;DHT22;10908;50.690;4.400;2023-06-22T05:21:14;19.50;78.60
21493;DHT22;10908;50.690;4.400;2023-06-22T05:23:39;19.60;78.70
21493;DHT22;10908;50.690;4.400;2023-06-22T05:26:05;19.80;78.70
21493;DHT22;10908;50.690;4.400;2023-06-22T05:28:30;19.80;78.20
21493;DHT22;10908;50.690;4.400;2023-06-22T05:30:56;19.90;78.30
21493;DHT22;10908;50.690;4.400;2023-06-22T05:33:21;19.90;78.00
21493;DHT22;10908;50.690;4.400;2023-06-22T05:35:47;19.80;78.10
21493;DHT22;10908;50.690;4.400;2023-06-22T05:38:13;19.70;78.80
21493;DHT22;10908;50.690;4.400;2023-06-22T05:40:39;19.70;79.30
21493;DHT22;10908;50.690;4.400;2023-06-22T05:43:04;19.60;79.00
21493;DHT22;10908;50.690;4.400;2023-06-22T05:45:30;19.70;78.60
21493;DHT22;10908;50.690;4.400;2023-06-22T05:47:56;19.70;79.00
21493;DHT22;10908;50.690;4.400;2023-06-22T05:50:21;19.70;80.00
21493;DHT22;10908;50.690;4.400;2023-06-22T05:52:47;19.80;79.20
21493;DHT22;10908;50.690;4.400;2023-06-22T05:55:12;19.90;79.20
21493;DHT22;10908;50.690;4.400;2023-06-22T05:57:38;19.90;79.20
21493;DHT22;10908;50.690;4.400;2023-06-22T06:00:04;20.00;79.50
21493;DHT22;10908;50.690;4.400;2023-06-22T06:02:36;20.00;79.10
21493;DHT22;10908;50.690;4.400;2023-06-22T06:05:01;19.90;78.90
21493;DHT22;10908;50.690;4.400;2023-06-22T06:07:28;19.70;79.70
21493;DHT22;10908;50.690;4.400;2023-06-22T06:09:54;19.70;79.90
21493;DHT22;10908;50.690;4.400;2023-06-22T06:12:19;19.80;79.80
21493;DHT22;10908;50.690;4.400;2023-06-22T06:14:45;19.80;79.70
21493;DHT22;10908;50.690;4.400;2023-06-22T06:17:11;20.00;80.00
21493;DHT22;10908;50.690;4.400;2023-06-22T06:19:36;20.00;79.10
21493;DHT22;10908;50.690;4.400;2023-06-22T06:22:02;20.00;79.10
21493;DHT22;10908;50.690;4.400;2023-06-22T06:24:28;19.90;79.70
21493;DHT22;10908;50.690;4.400;2023-06-22T06:26:53;20.00;79.40
21493;DHT22;10908;50.690;4.400;2023-06-22T06:29:19;20.00;79.20
21493;DHT22;10908;50.690;4.400;2023-06-22T06:31:45;19.90;79.60
21493;DHT22;10908;50.690;4.400;2023-06-22T06:34:10;19.90;79.60
21493;DHT22;10908;50.690;4.400;2023-06-22T06:36:36;20.00;79.40
21493;DHT22;10908;50.690;4.400;2023-06-22T06:39:02;20.00;80.00
21493;DHT22;10908;50.690;4.400;2023-06-22T06:41:29;20.00;79.70
21493;DHT22;10908;50.690;4.400;2023-06-22T06:43:54;20.10;79.40
21493;DHT22;10908;50.690;4.400;2023-06-22T06:46:20;19.90;79.60
21493;DHT22;10908;50.690;4.400;2023-06-22T06:48:47;20.00;80.00
21493;DHT22;10908;50.690;4.400;2023-06-22T06:51:12;20.10;79.80
21493;DHT22;10908;50.690;4.400;2023-06-22T06:53:38;20.20;79.70
21493;DHT22;10908;50.690;4.400;2023-06-22T06:56:04;20.30;78.90
21493;DHT22;10908;50.690;4.400;2023-06-22T06:58:31;20.40;78.70
21493;DHT22;10908;50.690;4.400;2023-06-22T07:00:56;20.50;78.90
21493;DHT22;10908;50.690;4.400;2023-06-22T07:03:22;20.70;77.90
21493;DHT22;10908;50.690;4.400;2023-06-22T07:05:48;20.80;77.30
21493;DHT22;10908;50.690;4.400;2023-06-22T07:08:13;20.90;77.10
21493;DHT22;10908;50.690;4.400;2023-06-22T07:10:39;20.70;77.10
21493;DHT22;10908;50.690;4.400;2023-06-22T07:13:05;20.70;77.20
21493;DHT22;10908;50.690;4.400;2023-06-22T07:15:30;20.90;77.10
21493;DHT22;10908;50.690;4.400;2023-06-22T07:17:56;21.00;77.10
21493;DHT22;10908;50.690;4.400;2023-06-22T07:20:21;21.10;76.00
21493;DHT22;10908;50.690;4.400;2023-06-22T07:22:47;21.00;75.70
21493;DHT22;10908;50.690;4.400;2023-06-22T07:25:13;21.10;75.70
21493;DHT22;10908;50.690;4.400;2023-06-22T07:28:12;21.10;75.00
21493;DHT22;10908;50.690;4.400;2023-06-22T07:30:37;21.00;74.20
21493;DHT22;10908;50.690;4.400;2023-06-22T07:33:03;20.90;73.90
21493;DHT22;10908;50.690;4.400;2023-06-22T07:35:32;20.80;74.70
21493;DHT22;10908;50.690;4.400;2023-06-22T07:37:58;20.80;74.20
21493;DHT22;10908;50.690;4.400;2023-06-22T07:40:24;20.70;74.30
21493;DHT22;10908;50.690;4.400;2023-06-22T07:42:50;20.80;74.40
21493;DHT22;10908;50.690;4.400;2023-06-22T07:45:17;20.80;75.20
21493;DHT22;10908;50.690;4.400;2023-06-22T07:47:43;20.90;74.90
21493;DHT22;10908;50.690;4.400;2023-06-22T07:50:09;20.80;74.80
21493;DHT22;10908;50.690;4.400;2023-06-22T07:52:35;20.80;74.70
21493;DHT22;10908;50.690;4.400;2023-06-22T07:55:01;20.90;74.70
21493;DHT22;10908;50.690;4.400;2023-06-22T07:57:28;20.90;74.60
21493;DHT22;10908;50.690;4.400;2023-06-22T08:00:00;20.80;74.90
21493;DHT22;10908;50.690;4.400;2023-06-22T08:02:26;20.90;74.40
21493;DHT22;10908;50.690;4.400;2023-06-22T08:04:52;20.70;74.80
21493;DHT22;10908;50.690;4.400;2023-06-22T08:07:18;20.90;74.40
21493;DHT22;10908;50.690;4.400;2023-06-22T08:09:48;20.70;74.00
21493;DHT22;10908;50.690;4.400;2023-06-22T08:12:14;20.80;74.30
21493;DHT22;10908;50.690;4.400;2023-06-22T08:14:42;20.90;73.10
21493;DHT22;10908;50.690;4.400;2023-06-22T08:17:08;20.80;73.50
21493;DHT22;10908;50.690;4.400;2023-06-22T08:19:34;20.80;73.90
21493;DHT22;10908;50.690;4.400;2023-06-22T08:22:00;20.80;73.40
21493;DHT22;10908;50.690;4.400;2023-06-22T08:24:25;20.90;73.20
21493;DHT22;10908;50.690;4.400;2023-06-22T08:26:51;20.90;72.80
21493;DHT22;10908;50.690;4.400;2023-06-22T08:29:17;20.80;73.40
21493;DHT22;10908;50.690;4.400;2023-06-22T08:31:43;20.90;73.20
21493;DHT22;10908;50.690;4.400;2023-06-22T08:34:08;20.90;73.60
21493;DHT22;10908;50.690;4.400;2023-06-22T08:36:34;20.70;74.00
21493;DHT22;10908;50.690;4.400;2023-06-22T08:39:07;20.80;73.70
21493;DHT22;10908;50.690;4.400;2023-06-22T08:41:33;20.80;73.70
21493;DHT22;10908;50.690;4.400;2023-06-22T08:43:59;20.70;74.40
21493;DHT22;10908;50.690;4.400;2023-06-22T08:46:25;20.80;75.00
21493;DHT22;10908;50.690;4.400;2023-06-22T08:48:56;20.90;75.50
21493;DHT22;10908;50.690;4.400;2023-06-22T08:51:25;21.00;74.70
21493;DHT22;10908;50.690;4.400;2023-06-22T08:53:50;20.80;75.00
21493;DHT22;10908;50.690;4.400;2023-06-22T08:56:16;20.80;75.30
21493;DHT22;10908;50.690;4.400;2023-06-22T08:58:42;20.80;76.40
21493;DHT22;10908;50.690;4.400;2023-06-22T09:01:07;20.80;75.70
21493;DHT22;10908;50.690;4.400;2023-06-22T09:03:33;20.90;75.60
21493;DHT22;10908;50.690;4.400;2023-06-22T09:06:01;21.00;76.00
21493;DHT22;10908;50.690;4.400;2023-06-22T09:08:27;21.10;75.70
21493;DHT22;10908;50.690;4.400;2023-06-22T09:10:53;21.30;75.00
21493;DHT22;10908;50.690;4.400;2023-06-22T09:13:18;21.20;75.20
21493;DHT22;10908;50.690;4.400;2023-06-22T09:15:44;21.10;75.50
21493;DHT22;10908;50.690;4.400;2023-06-22T09:18:13;21.10;76.10
21493;DHT22;10908;50.690;4.400;2023-06-22T09:20:39;21.20;75.50
21493;DHT22;10908;50.690;4.400;2023-06-22T09:23:05;20.80;75.90
21493;DHT22;10908;50.690;4.400;2023-06-22T09:25:31;20.80;76.50
21493;DHT22;10908;50.690;4.400;2023-06-22T09:27:56;20.80;77.60
21493;DHT22;10908;50.690;4.400;2023-06-22T09:30:22;21.00;78.60
21493;DHT22;10908;50.690;4.400;2023-06-22T09:32:48;21.10;79.50
21493;DHT22;10908;50.690;4.400;2023-06-22T09:35:13;21.20;79.80
21493;DHT22;10908;50.690;4.400;2023-06-22T09:37:40;21.20;80.40
21493;DHT22;10908;50.690;4.400;2023-06-22T09:40:07;21.10;80.60
21493;DHT22;10908;50.690;4.400;2023-06-22T09:42:38;20.90;81.10
21493;DHT22;10908;50.690;4.400;2023-06-22T09:45:05;20.90;81.50
21493;DHT22;10908;50.690;4.400;2023-06-22T09:47:31;20.90;80.80
21493;DHT22;10908;50.690;4.400;2023-06-22T09:49:56;20.50;81.90
21493;DHT22;10908;50.690;4.400;2023-06-22T09:52:24;20.40;83.30
21493;DHT22;10908;50.690;4.400;2023-06-22T09:54:50;20.30;84.70
21493;DHT22;10908;50.690;4.400;2023-06-22T09:57:15;20.40;84.90
21493;DHT22;10908;50.690;4.400;2023-06-22T09:59:41;20.30;84.80
21493;DHT22;10908;50.690;4.400;2023-06-22T10:02:07;20.10;85.20
21493;DHT22;10908;50.690;4.400;2023-06-22T10:04:36;20.10;85.50
21493;DHT22;10908;50.690;4.400;2023-06-22T10:07:03;19.90;85.40
21493;DHT22;10908;50.690;4.400;2023-06-22T10:09:28;19.90;85.60
21493;DHT22;10908;50.690;4.400;2023-06-22T10:11:54;19.90;84.70
21493;DHT22;10908;50.690;4.400;2023-06-22T10:14:20;19.50;84.50
21493;DHT22;10908;50.690;4.400;2023-06-22T10:16:46;19.10;85.50
21493;DHT22;10908;50.690;4.400;2023-06-22T10:19:11;19.00;87.00
21493;DHT22;10908;50.690;4.400;2023-06-22T10:21:37;18.90;87.70
21493;DHT22;10908;50.690;4.400;2023-06-22T10:24:03;18.80;89.20
21493;DHT22;10908;50.690;4.400;2023-06-22T10:26:35;18.70;89.70
21493;DHT22;10908;50.690;4.400;2023-06-22T10:29:02;18.60;89.30
21493;DHT22;10908;50.690;4.400;2023-06-22T10:31:28;18.60;89.10
21493;DHT22;10908;50.690;4.400;2023-06-22T10:33:55;18.40;88.60
21493;DHT22;10908;50.690;4.400;2023-06-22T10:36:21;18.40;88.50
21493;DHT22;10908;50.690;4.400;2023-06-22T10:38:47;18.40;87.90
21493;DHT22;10908;50.690;4.400;2023-06-22T10:41:13;18.40;88.50
21493;DHT22;10908;50.690;4.400;2023-06-22T10:43:39;18.40;88.10
21493;DHT22;10908;50.690;4.400;2023-06-22T10:46:06;18.40;87.30
21493;DHT22;10908;50.690;4.400;2023-06-22T10:48:31;18.40;87.50
21493;DHT22;10908;50.690;4.400;2023-06-22T10:50:57;18.60;87.10
21493;DHT22;10908;50.690;4.400;2023-06-22T10:53:23;18.90;86.60
21493;DHT22;10908;50.690;4.400;2023-06-22T10:55:48;19.00;86.20
21493;DHT22;10908;50.690;4.400;2023-06-22T10:58:14;19.20;86.00
21493;DHT22;10908;50.690;4.400;2023-06-22T11:00:40;19.10;85.40
21493;DHT22;10908;50.690;4.400;2023-06-22T11:03:05;19.10;85.70
21493;DHT22;10908;50.690;4.400;2023-06-22T11:05:31;19.10;86.30
21493;DHT22;10908;50.690;4.400;2023-06-22T11:07:57;19.00;85.90
21493;DHT22;10908;50.690;4.400;2023-06-22T11:10:23;19.00;86.90
21493;DHT22;10908;50.690;4.400;2023-06-22T11:12:49;19.00;86.50
21493;DHT22;10908;50.690;4.400;2023-06-22T11:15:14;19.00;86.80
21493;DHT22;10908;50.690;4.400;2023-06-22T11:17:40;19.00;87.00
21493;DHT22;10908;50.690;4.400;2023-06-22T11:20:06;19.00;86.90
21493;DHT22;10908;50.690;4.400;2023-06-22T11:22:41;19.00;87.00
21493;DHT22;10908;50.690;4.400;2023-06-22T11:25:07;19.00;87.40
21493;DHT22;10908;50.690;4.400;2023-06-22T11:27:33;19.20;87.90
21493;DHT22;10908;50.690;4.400;2023-06-22T11:29:59;19.40;87.20
21493;DHT22;10908;50.690;4.400;2023-06-22T11:32:24;19.20;87.30
21493;DHT22;10908;50.690;4.400;2023-06-22T11:34:50;19.20;87.00
21493;DHT22;10908;50.690;4.400;2023-06-22T11:37:16;19.10;87.00
21493;DHT22;10908;50.690;4.400;2023-06-22T11:39:44;19.30;87.20
21493;DHT22;10908;50.690;4.400;2023-06-22T11:42:11;19.40;87.20
21493;DHT22;10908;50.690;4.400;2023-06-22T11:44:36;19.30;86.50
21493;DHT22;10908;50.690;4.400;2023-06-22T11:47:02;19.10;86.60
21493;DHT22;10908;50.690;4.400;2023-06-22T11:49:30;19.20;87.10
21493;DHT22;10908;50.690;4.400;2023-06-22T11:51:56;19.30;86.80
21493;DHT22;10908;50.690;4.400;2023-06-22T11:54:21;19.40;86.20
21493;DHT22;10908;50.690;4.400;2023-06-22T11:56:47;19.30;86.40
21493;DHT22;10908;50.690;4.400;2023-06-22T11:59:13;19.30;86.70
21493;DHT22;10908;50.690;4.400;2023-06-22T12:01:38;19.40;86.90
21493;DHT22;10908;50.690;4.400;2023-06-22T12:04:04;19.30;86.80
21493;DHT22;10908;50.690;4.400;2023-06-22T12:06:32;19.30;87.10
21493;DHT22;10908;50.690;4.400;2023-06-22T12:08:58;19.30;87.10
21493;DHT22;10908;50.690;4.400;2023-06-22T12:11:24;19.20;87.10
21493;DHT22;10908;50.690;4.400;2023-06-22T12:13:49;19.20;87.30
21493;DHT22;10908;50.690;4.400;2023-06-22T12:16:15;19.00;87.70
21493;DHT22;10908;50.690;4.400;2023-06-22T12:18:40;19.00;88.20
21493;DHT22;10908;50.690;4.400;2023-06-22T12:21:06;18.90;88.30
21493;DHT22;10908;50.690;4.400;2023-06-22T12:23:32;18.90;88.70
21493;DHT22;10908;50.690;4.400;2023-06-22T12:25:57;18.90;89.00
21493;DHT22;10908;50.690;4.400;2023-06-22T12:28:24;18.80;89.00
21493;DHT22;10908;50.690;4.400;2023-06-22T12:30:50;18.40;89.80
21493;DHT22;10908;50.690;4.400;2023-06-22T12:33:16;18.30;91.40
21493;DHT22;10908;50.690;4.400;2023-06-22T12:35:41;18.40;92.40
21493;DHT22;10908;50.690;4.400;2023-06-22T12:38:07;18.30;92.70
21493;DHT22;10908;50.690;4.400;2023-06-22T12:40:33;18.30;92.90
21493;DHT22;10908;50.690;4.400;2023-06-22T12:42:59;18.30;92.80
21493;DHT22;10908;50.690;4.400;2023-06-22T12:45:24;18.20;92.40
21493;DHT22;10908;50.690;4.400;2023-06-22T12:47:54;18.20;92.10
21493;DHT22;10908;50.690;4.400;2023-06-22T12:50:20;18.30;92.20
21493;DHT22;10908;50.690;4.400;2023-06-22T12:52:45;18.30;92.30
21493;DHT22;10908;50.690;4.400;2023-06-22T12:55:11;18.30;92.10
21493;DHT22;10908;50.690;4.400;2023-06-22T12:57:36;18.20;92.00
21493;DHT22;10908;50.690;4.400;2023-06-22T13:00:02;18.20;92.20
21493;DHT22;10908;50.690;4.400;2023-06-22T13:02:30;18.20;92.40
21493;DHT22;10908;50.690;4.400;2023-06-22T13:04:55;18.20;92.50
21493;DHT22;10908;50.690;4.400;2023-06-22T13:07:21;18.30;92.60
21493;DHT22;10908;50.690;4.400;2023-06-22T13:09:46;18.20;92.30
21493;DHT22;10908;50.690;4.400;2023-06-22T13:12:16;18.30;92.10
21493;DHT22;10908;50.690;4.400;2023-06-22T13:14:42;18.20;92.00
21493;DHT22;10908;50.690;4.400;2023-06-22T13:17:08;18.30;92.00
21493;DHT22;10908;50.690;4.400;2023-06-22T13:19:34;18.30;91.90
21493;DHT22;10908;50.690;4.400;2023-06-22T13:22:00;18.30;91.90
21493;DHT22;10908;50.690;4.400;2023-06-22T13:24:26;18.30;91.80
21493;DHT22;10908;50.690;4.400;2023-06-22T13:26:51;18.30;92.10
21493;DHT22;10908;50.690;4.400;2023-06-22T13:29:17;18.30;92.20
21493;DHT22;10908;50.690;4.400;2023-06-22T13:31:42;18.40;92.00
21493;DHT22;10908;50.690;4.400;2023-06-22T13:34:08;18.40;92.10
21493;DHT22;10908;50.690;4.400;2023-06-22T13:36:34;18.30;92.00
21493;DHT22;10908;50.690;4.400;2023-06-22T13:38:59;18.30;91.90
21493;DHT22;10908;50.690;4.400;2023-06-22T13:41:25;18.50;91.90
21493;DHT22;10908;50.690;4.400;2023-06-22T13:43:51;18.50;91.80
21493;DHT22;10908;50.690;4.400;2023-06-22T13:46:16;18.60;91.40
21493;DHT22;10908;50.690;4.400;2023-06-22T13:48:42;18.60;91.40
21493;DHT22;10908;50.690;4.400;2023-06-22T13:51:08;18.70;91.40
21493;DHT22;10908;50.690;4.400;2023-06-22T13:53:33;18.70;91.30
21493;DHT22;10908;50.690;4.400;2023-06-22T13:55:59;18.70;91.20
21493;DHT22;10908;50.690;4.400;2023-06-22T13:58:24;18.70;91.20
21493;DHT22;10908;50.690;4.400;2023-06-22T14:00:50;18.70;91.40
21493;DHT22;10908;50.690;4.400;2023-06-22T14:03:15;18.70;91.40
21493;DHT22;10908;50.690;4.400;2023-06-22T14:05:42;18.70;91.40
21493;DHT22;10908;50.690;4.400;2023-06-22T14:08:08;18.70;91.30
21493;DHT22;10908;50.690;4.400;2023-06-22T14:10:34;18.60;91.40
21493;DHT22;10908;50.690;4.400;2023-06-22T14:13:00;18.40;91.70
21493;DHT22;10908;50.690;4.400;2023-06-22T14:15:26;18.30;92.40
21493;DHT22;10908;50.690;4.400;2023-06-22T14:17:52;18.10;93.00
21493;DHT22;10908;50.690;4.400;2023-06-22T14:20:19;18.10;93.40
21493;DHT22;10908;50.690;4.400;2023-06-22T14:22:44;18.20;93.80
21493;DHT22;10908;50.690;4.400;2023-06-22T14:25:10;18.30;93.80
21493;DHT22;10908;50.690;4.400;2023-06-22T14:27:35;18.20;93.80
21493;DHT22;10908;50.690;4.400;2023-06-22T14:30:01;18.30;94.10
21493;DHT22;10908;50.690;4.400;2023-06-22T14:32:28;18.20;93.90
21493;DHT22;10908;50.690;4.400;2023-06-22T14:34:56;18.10;93.90
21493;DHT22;10908;50.690;4.400;2023-06-22T14:37:22;18.20;93.80
21493;DHT22;10908;50.690;4.400;2023-06-22T14:39:48;18.30;93.70
21493;DHT22;10908;50.690;4.400;2023-06-22T14:42:13;18.20;93.60
21493;DHT22;10908;50.690;4.400;2023-06-22T14:44:39;18.20;93.50
21493;DHT22;10908;50.690;4.400;2023-06-22T14:47:05;18.40;93.60
21493;DHT22;10908;50.690;4.400;2023-06-22T14:49:30;18.30;93.50
21493;DHT22;10908;50.690;4.400;2023-06-22T14:51:56;18.40;93.60
21493;DHT22;10908;50.690;4.400;2023-06-22T14:54:22;18.30;93.50
21493;DHT22;10908;50.690;4.400;2023-06-22T14:56:48;18.30;93.40
21493;DHT22;10908;50.690;4.400;2023-06-22T14:59:13;18.40;93.60
21493;DHT22;10908;50.690;4.400;2023-06-22T15:01:39;18.50;93.60
21493;DHT22;10908;50.690;4.400;2023-06-22T15:04:05;18.60;93.50
21493;DHT22;10908;50.690;4.400;2023-06-22T15:06:31;18.60;93.20
21493;DHT22;10908;50.690;4.400;2023-06-22T15:08:56;18.60;92.90
21493;DHT22;10908;50.690;4.400;2023-06-22T15:11:22;18.50;92.70
21493;DHT22;10908;50.690;4.400;2023-06-22T15:13:48;18.50;92.50
21493;DHT22;10908;50.690;4.400;2023-06-22T15:16:14;18.60;92.40
21493;DHT22;10908;50.690;4.400;2023-06-22T15:18:39;18.60;92.20
21493;DHT22;10908;50.690;4.400;2023-06-22T15:21:07;18.60;91.90
21493;DHT22;10908;50.690;4.400;2023-06-22T15:23:33;18.50;91.80
21493;DHT22;10908;50.690;4.400;2023-06-22T15:26:02;18.50;91.70
21493;DHT22;10908;50.690;4.400;2023-06-22T15:28:30;18.60;91.70
21493;DHT22;10908;50.690;4.400;2023-06-22T15:30:57;18.60;91.70